Time;durP1;ratioP1;P1;durP2;ratioP2;P2;SDS_P1;SDS_P2;PMS_P1;PMS_P2;Temp;Humidity;BMP_temperature;BMP_pressure;BME280_temperature;BME280_humidity;BME280_pressure;Samples;Min_cycle;Max_cycle;Signal;HPM_P1;HPM_P2
2022/12/10 00:00:53;;;;;;;35.13;19.90;;;;;;;;;;6294815;22;20507;-74
2022/12/10 00:03:41;;;;;;;34.93;20.27;;;;;;;;;;6296589;22;20409;-74
2022/12/10 00:06:34;;;;;;;39.80;22.13;;;;;;;;;;6290898;22;20736;-75
2022/12/10 00:09:27;;;;;;;38.20;20.60;;;;;;;;;;6296820;22;20433;-74
2022/12/10 00:12:16;;;;;;;35.00;18.30;;;;;;;;;;6303201;22;20470;-74
2022/12/10 00:18:11;;;;;;;36.10;19.93;;;;;;;;;;6290493;22;20779;-75
2022/12/10 00:21:00;;;;;;;36.70;20.50;;;;;;;;;;6298947;22;20427;-74
2022/12/10 00:23:52;;;;;;;37.13;19.57;;;;;;;;;;6291574;22;20417;-74
2022/12/10 00:26:41;;;;;;;40.13;19.67;;;;;;;;;;6282213;22;20404;-73
2022/12/10 00:29:34;;;;;;;38.50;17.77;;;;;;;;;;6287183;22;20429;-75
2022/12/10 00:32:24;;;;;;;31.90;17.70;;;;;;;;;;6292282;22;20418;-75
2022/12/10 00:35:15;;;;;;;32.87;17.93;;;;;;;;;;6288583;22;20418;-75
2022/12/10 00:38:07;;;;;;;28.17;15.50;;;;;;;;;;6288659;22;20452;-74
2022/12/10 00:41:00;;;;;;;23.60;14.93;;;;;;;;;;6289062;22;20995;-75
2022/12/10 00:43:49;;;;;;;27.63;16.53;;;;;;;;;;6288570;22;20429;-73
2022/12/10 00:46:40;;;;;;;26.57;15.57;;;;;;;;;;6287130;22;20416;-74
2022/12/10 00:49:28;;;;;;;28.60;16.20;;;;;;;;;;6300648;22;20454;-79
2022/12/10 00:52:18;;;;;;;26.33;16.00;;;;;;;;;;6275582;22;20874;-78
2022/12/10 00:55:07;;;;;;;25.70;15.10;;;;;;;;;;6273507;22;20417;-78
2022/12/10 00:58:19;;;;;;;26.90;14.87;;;;;;;;;;6273388;22;20888;-77
2022/12/10 01:01:09;;;;;;;28.57;14.93;;;;;;;;;;6276712;22;20433;-80
2022/12/10 01:03:59;;;;;;;24.27;14.43;;;;;;;;;;6284758;22;20517;-80
2022/12/10 01:06:52;;;;;;;26.70;14.13;;;;;;;;;;6274633;22;20409;-79
2022/12/10 01:09:44;;;;;;;22.87;14.53;;;;;;;;;;6277494;22;20436;-79
2022/12/10 01:12:36;;;;;;;27.80;15.60;;;;;;;;;;6275913;22;20419;-79
2022/12/10 01:15:26;;;;;;;26.50;15.27;;;;;;;;;;6274857;22;20428;-80
2022/12/10 01:18:14;;;;;;;27.70;15.20;;;;;;;;;;6275278;22;20452;-78
2022/12/10 01:21:04;;;;;;;28.23;15.57;;;;;;;;;;6286427;22;20424;-79
2022/12/10 01:23:53;;;;;;;27.33;15.10;;;;;;;;;;6284726;22;20413;-77
2022/12/10 01:26:45;;;;;;;26.90;15.70;;;;;;;;;;6282215;22;20518;-78
2022/12/10 01:29:34;;;;;;;29.30;16.03;;;;;;;;;;6280688;22;20517;-80
2022/12/10 01:32:24;;;;;;;26.37;16.53;;;;;;;;;;6275317;22;20422;-77
2022/12/10 01:35:17;;;;;;;27.37;16.30;;;;;;;;;;6270960;22;20430;-78
2022/12/10 01:38:05;;;;;;;26.07;15.77;;;;;;;;;;6286146;22;20781;-77
2022/12/10 01:40:54;;;;;;;27.27;16.00;;;;;;;;;;6276304;22;20429;-80
2022/12/10 01:43:52;;;;;;;28.90;15.53;;;;;;;;;;6279497;22;20649;-79
2022/12/10 01:46:41;;;;;;;26.07;16.07;;;;;;;;;;6275839;22;20424;-80
2022/12/10 01:49:35;;;;;;;26.10;15.43;;;;;;;;;;6270739;22;20464;-77
2022/12/10 01:52:24;;;;;;;26.90;15.40;;;;;;;;;;6274352;22;20474;-77
2022/12/10 01:55:27;;;;;;;24.70;14.50;;;;;;;;;;6276158;22;20420;-82
2022/12/10 01:58:19;;;;;;;23.93;14.27;;;;;;;;;;6276108;22;20433;-78
2022/12/10 02:01:13;;;;;;;26.23;14.63;;;;;;;;;;6274284;22;20496;-79
2022/12/10 02:04:15;;;;;;;21.27;13.33;;;;;;;;;;6270904;22;20410;-78
2022/12/10 02:07:12;;;;;;;21.90;13.50;;;;;;;;;;6273945;22;20914;-77
2022/12/10 02:10:06;;;;;;;21.90;14.00;;;;;;;;;;6278027;22;20457;-77
2022/12/10 02:13:00;;;;;;;24.77;14.17;;;;;;;;;;6286653;22;20406;-78
2022/12/10 02:16:11;;;;;;;24.33;15.10;;;;;;;;;;6277853;22;20725;-79
2022/12/10 02:19:06;;;;;;;21.73;12.30;;;;;;;;;;6276226;22;20444;-78
2022/12/10 02:21:55;;;;;;;24.77;12.70;;;;;;;;;;6283308;22;20476;-77
2022/12/10 02:24:49;;;;;;;22.07;13.23;;;;;;;;;;6272503;22;20518;-79
2022/12/10 02:27:42;;;;;;;19.47;11.80;;;;;;;;;;6286552;22;20413;-79
2022/12/10 02:30:33;;;;;;;17.57;11.20;;;;;;;;;;6274909;22;20443;-78
2022/12/10 02:33:22;;;;;;;21.07;11.80;;;;;;;;;;6280296;22;20416;-78
2022/12/10 02:36:11;;;;;;;18.40;11.70;;;;;;;;;;6289167;22;20419;-79
2022/12/10 02:39:07;;;;;;;19.17;11.80;;;;;;;;;;6280104;22;20432;-78
2022/12/10 02:41:59;;;;;;;20.43;11.50;;;;;;;;;;6279463;22;21098;-79
2022/12/10 02:44:49;;;;;;;17.40;10.60;;;;;;;;;;6275305;22;20418;-77
2022/12/10 02:47:40;;;;;;;17.67;11.30;;;;;;;;;;6271750;22;20420;-78
2022/12/10 02:50:30;;;;;;;18.63;11.33;;;;;;;;;;6278861;22;20480;-78
2022/12/10 02:53:19;;;;;;;17.20;11.10;;;;;;;;;;6288332;22;20416;-78
2022/12/10 02:56:12;;;;;;;17.40;11.27;;;;;;;;;;6285290;22;20895;-77
2022/12/10 02:59:09;;;;;;;19.87;11.13;;;;;;;;;;6288829;22;20445;-77
2022/12/10 03:01:59;;;;;;;18.33;11.70;;;;;;;;;;6284934;22;20417;-79
2022/12/10 03:04:54;;;;;;;17.97;10.70;;;;;;;;;;6300230;22;20414;-78
2022/12/10 03:07:47;;;;;;;17.03;11.23;;;;;;;;;;6289996;22;20789;-77
2022/12/10 03:10:43;;;;;;;18.30;12.10;;;;;;;;;;6287227;22;20433;-77
2022/12/10 03:13:38;;;;;;;16.27;10.57;;;;;;;;;;6286798;22;20404;-77
2022/12/10 03:16:30;;;;;;;17.33;11.20;;;;;;;;;;6287935;22;20423;-78
2022/12/10 03:19:22;;;;;;;17.60;11.40;;;;;;;;;;6289236;22;20459;-77
2022/12/10 03:22:13;;;;;;;16.93;10.47;;;;;;;;;;6287661;22;20433;-80
2022/12/10 03:25:05;;;;;;;16.43;10.90;;;;;;;;;;6289720;22;20416;-77
2022/12/10 03:27:56;;;;;;;13.00;9.60;;;;;;;;;;6301054;22;20408;-79
2022/12/10 03:30:49;;;;;;;15.33;11.57;;;;;;;;;;6288878;22;20441;-78
2022/12/10 03:33:38;;;;;;;17.37;11.50;;;;;;;;;;6288560;22;20413;-77
2022/12/10 03:36:31;;;;;;;15.43;10.13;;;;;;;;;;6288392;22;20980;-77
2022/12/10 03:39:28;;;;;;;18.00;10.50;;;;;;;;;;6290208;22;20501;-77
2022/12/10 03:42:21;;;;;;;16.03;10.87;;;;;;;;;;6288583;22;20411;-77
2022/12/10 03:45:10;;;;;;;15.20;10.83;;;;;;;;;;6289603;22;20823;-79
2022/12/10 03:48:01;;;;;;;14.17;10.20;;;;;;;;;;6285881;22;20910;-77
2022/12/10 03:50:50;;;;;;;16.00;11.07;;;;;;;;;;6288400;22;20445;-77
2022/12/10 03:53:38;;;;;;;14.07;10.13;;;;;;;;;;6286125;22;20413;-77
2022/12/10 03:56:31;;;;;;;15.67;10.67;;;;;;;;;;6278364;22;20434;-78
2022/12/10 03:59:20;;;;;;;16.47;11.47;;;;;;;;;;6273204;22;20441;-79
2022/12/10 04:02:11;;;;;;;16.10;11.60;;;;;;;;;;6282793;22;20409;-77
2022/12/10 04:05:02;;;;;;;15.60;10.23;;;;;;;;;;6285687;22;20419;-78
2022/12/10 04:07:51;;;;;;;17.30;9.83;;;;;;;;;;6286040;22;20922;-77
2022/12/10 04:10:40;;;;;;;15.93;10.53;;;;;;;;;;6282526;22;20438;-78
2022/12/10 04:16:46;;;;;;;14.10;10.70;;;;;;;;;;6286996;22;20415;-78
2022/12/10 04:19:37;;;;;;;13.57;9.97;;;;;;;;;;6287784;22;20442;-77
2022/12/10 04:28:44;;;;;;;10.33;8.93;;;;;;;;;;6240828;22;20419;-77
2022/12/10 04:31:36;;;;;;;11.63;9.07;;;;;;;;;;6284696;22;20433;-77
2022/12/10 04:34:25;;;;;;;12.77;9.23;;;;;;;;;;6286715;22;20419;-78
2022/12/10 04:37:15;;;;;;;12.47;9.20;;;;;;;;;;6286736;22;20754;-78
2022/12/10 04:40:04;;;;;;;13.83;9.30;;;;;;;;;;6285249;22;20450;-77
2022/12/10 04:42:53;;;;;;;12.90;9.80;;;;;;;;;;6287686;22;20410;-78
2022/12/10 04:45:46;;;;;;;12.50;9.17;;;;;;;;;;6286048;22;20428;-78
2022/12/10 04:48:41;;;;;;;16.83;10.73;;;;;;;;;;6284567;22;20470;-78
2022/12/10 04:51:36;;;;;;;14.37;9.90;;;;;;;;;;6286098;22;20445;-77
2022/12/10 04:54:25;;;;;;;14.70;11.13;;;;;;;;;;6287941;22;20417;-78
2022/12/10 04:57:13;;;;;;;11.87;8.80;;;;;;;;;;6281437;22;20412;-77
2022/12/10 05:00:02;;;;;;;13.73;9.37;;;;;;;;;;6286113;22;20441;-77
2022/12/10 05:02:52;;;;;;;16.60;10.10;;;;;;;;;;6284659;22;20470;-77
2022/12/10 05:05:41;;;;;;;12.67;10.30;;;;;;;;;;6281324;22;20425;-77
2022/12/10 05:08:32;;;;;;;15.00;10.00;;;;;;;;;;6283989;22;20884;-77
2022/12/10 05:11:21;;;;;;;13.23;10.23;;;;;;;;;;6281725;22;20429;-77
2022/12/10 05:14:14;;;;;;;12.53;9.63;;;;;;;;;;6282150;22;20406;-77
2022/12/10 05:17:06;;;;;;;14.63;11.07;;;;;;;;;;6283409;22;20413;-78
2022/12/10 05:19:56;;;;;;;14.67;10.60;;;;;;;;;;6284183;22;20469;-77
2022/12/10 05:25:59;;;;;;;12.60;9.80;;;;;;;;;;6284085;22;20414;-77
2022/12/10 05:28:50;;;;;;;13.80;10.40;;;;;;;;;;6287448;22;20421;-78
2022/12/10 05:31:38;;;;;;;15.90;10.73;;;;;;;;;;6286043;22;20420;-78
2022/12/10 05:34:33;;;;;;;15.53;10.77;;;;;;;;;;6275682;22;20421;-79
2022/12/10 05:37:28;;;;;;;11.20;9.30;;;;;;;;;;6279964;22;20418;-79
2022/12/10 05:40:16;;;;;;;12.60;9.53;;;;;;;;;;6274803;22;20450;-79
2022/12/10 05:43:09;;;;;;;12.93;10.33;;;;;;;;;;6274529;22;20917;-79
2022/12/10 05:46:02;;;;;;;13.60;11.03;;;;;;;;;;6273993;22;20430;-78
2022/12/10 05:48:55;;;;;;;14.57;10.50;;;;;;;;;;6274641;22;20437;-78
2022/12/10 05:51:47;;;;;;;13.60;10.93;;;;;;;;;;6275230;22;20423;-77
2022/12/10 05:54:37;;;;;;;16.20;10.50;;;;;;;;;;6274343;22;20412;-77
2022/12/10 05:57:27;;;;;;;12.73;9.77;;;;;;;;;;6275910;22;20442;-78
2022/12/10 06:00:18;;;;;;;11.90;10.20;;;;;;;;;;6276960;22;20571;-77
2022/12/10 06:03:07;;;;;;;13.97;11.13;;;;;;;;;;6271786;22;20903;-79
2022/12/10 06:05:55;;;;;;;13.23;10.07;;;;;;;;;;6280638;22;20469;-77
2022/12/10 06:08:44;;;;;;;14.60;11.20;;;;;;;;;;6272301;22;20412;-79
2022/12/10 06:11:34;;;;;;;14.03;10.90;;;;;;;;;;6276054;22;20462;-78
2022/12/10 06:14:26;;;;;;;13.50;10.50;;;;;;;;;;6281263;22;20418;-79
2022/12/10 06:17:22;;;;;;;15.50;11.27;;;;;;;;;;6287762;22;20436;-81
2022/12/10 06:20:19;;;;;;;14.37;11.07;;;;;;;;;;6281663;22;20445;-77
2022/12/10 06:23:15;;;;;;;14.83;11.00;;;;;;;;;;6276484;22;20419;-78
2022/12/10 06:26:05;;;;;;;14.53;11.00;;;;;;;;;;6274003;22;20417;-77
2022/12/10 06:28:57;;;;;;;12.23;10.27;;;;;;;;;;6281027;22;20412;-78
2022/12/10 06:31:46;;;;;;;12.87;10.33;;;;;;;;;;6293233;22;20421;-77
2022/12/10 06:34:34;;;;;;;13.90;10.50;;;;;;;;;;6284724;22;20415;-78
2022/12/10 06:37:32;;;;;;;14.70;10.83;;;;;;;;;;6288650;22;20413;-78
2022/12/10 06:40:31;;;;;;;12.60;10.13;;;;;;;;;;6282494;22;20448;-77
2022/12/10 06:43:21;;;;;;;14.10;10.80;;;;;;;;;;6295707;22;20476;-79
2022/12/10 06:46:16;;;;;;;12.90;10.63;;;;;;;;;;6287750;22;20404;-77
2022/12/10 06:49:12;;;;;;;16.87;12.23;;;;;;;;;;6287794;22;20440;-79
2022/12/10 06:52:00;;;;;;;12.20;10.10;;;;;;;;;;6292503;22;20514;-76
2022/12/10 06:54:49;;;;;;;13.23;11.27;;;;;;;;;;6301665;22;20409;-76
2022/12/10 06:57:38;;;;;;;14.93;11.37;;;;;;;;;;6304647;22;20536;-75
2022/12/10 07:00:26;;;;;;;12.90;11.27;;;;;;;;;;6294244;22;20787;-76
2022/12/10 07:03:16;;;;;;;13.80;10.37;;;;;;;;;;6271395;22;20421;-77
2022/12/10 07:06:06;;;;;;;13.60;10.70;;;;;;;;;;6270447;22;20431;-76
2022/12/10 07:08:58;;;;;;;12.57;10.67;;;;;;;;;;6265374;22;20687;-78
2022/12/10 07:11:47;;;;;;;13.13;10.83;;;;;;;;;;6275209;22;20774;-76
2022/12/10 07:14:35;;;;;;;14.73;11.60;;;;;;;;;;6268685;22;20501;-77
2022/12/10 07:17:26;;;;;;;14.23;10.90;;;;;;;;;;6268993;22;20927;-77
2022/12/10 07:20:18;;;;;;;14.67;11.70;;;;;;;;;;6269599;22;20669;-76
2022/12/10 07:23:14;;;;;;;14.40;11.60;;;;;;;;;;6266843;22;20413;-78
2022/12/10 07:26:03;;;;;;;13.80;11.50;;;;;;;;;;6265244;22;21273;-76
2022/12/10 07:28:51;;;;;;;13.00;11.07;;;;;;;;;;6264487;22;20496;-76
2022/12/10 07:31:42;;;;;;;15.20;11.40;;;;;;;;;;6264584;22;20521;-76
2022/12/10 07:34:31;;;;;;;16.63;12.27;;;;;;;;;;6268604;22;20975;-76
2022/12/10 07:37:23;;;;;;;15.43;11.83;;;;;;;;;;6272782;22;20419;-76
2022/12/10 07:40:17;;;;;;;15.37;11.03;;;;;;;;;;6253217;22;20448;-75
2022/12/10 07:43:11;;;;;;;14.53;11.70;;;;;;;;;;6258912;22;20760;-77
2022/12/10 07:46:04;;;;;;;14.20;11.67;;;;;;;;;;6255191;22;20411;-77
2022/12/10 07:49:03;;;;;;;12.87;11.10;;;;;;;;;;6266872;22;20412;-76
2022/12/10 07:51:52;;;;;;;16.97;12.33;;;;;;;;;;6264441;22;20436;-76
2022/12/10 07:54:50;;;;;;;16.33;11.80;;;;;;;;;;6276340;22;20423;-76
2022/12/10 07:57:38;;;;;;;15.67;12.23;;;;;;;;;;6268725;22;20421;-75
2022/12/10 08:00:43;;;;;;;14.50;11.87;;;;;;;;;;6256713;22;20750;-77
2022/12/10 08:03:32;;;;;;;13.57;11.40;;;;;;;;;;6254527;22;20424;-76
2022/12/10 08:06:22;;;;;;;12.57;10.50;;;;;;;;;;6262319;22;20423;-77
2022/12/10 08:09:10;;;;;;;14.30;11.17;;;;;;;;;;6266759;22;21183;-76
2022/12/10 08:12:00;;;;;;;11.63;10.00;;;;;;;;;;6259396;22;21228;-76
2022/12/10 08:14:49;;;;;;;12.07;9.93;;;;;;;;;;6270224;22;20413;-76
2022/12/10 08:17:37;;;;;;;13.00;10.87;;;;;;;;;;6256826;22;20419;-75
2022/12/10 08:20:27;;;;;;;14.40;10.43;;;;;;;;;;6259287;22;20472;-78
2022/12/10 08:23:15;;;;;;;13.27;10.50;;;;;;;;;;6265203;22;20421;-76
2022/12/10 08:26:05;;;;;;;11.53;10.10;;;;;;;;;;6255124;22;20419;-75
2022/12/10 08:28:57;;;;;;;13.87;10.40;;;;;;;;;;6257161;22;20438;-75
2022/12/10 08:31:46;;;;;;;14.53;10.63;;;;;;;;;;6267188;22;20448;-76
2022/12/10 08:34:35;;;;;;;12.87;9.80;;;;;;;;;;6251046;22;20414;-76
2022/12/10 08:37:23;;;;;;;16.80;10.80;;;;;;;;;;6270719;22;20488;-78
2022/12/10 08:40:12;;;;;;;11.43;10.00;;;;;;;;;;6266947;22;20409;-76
2022/12/10 08:43:01;;;;;;;13.70;11.00;;;;;;;;;;6268641;22;20410;-77
2022/12/10 08:45:51;;;;;;;13.20;10.73;;;;;;;;;;6256456;22;20891;-77
2022/12/10 08:48:40;;;;;;;13.53;10.50;;;;;;;;;;6253811;22;20411;-76
2022/12/10 08:51:28;;;;;;;14.23;10.77;;;;;;;;;;6266134;22;20673;-76
2022/12/10 08:54:17;;;;;;;13.70;10.27;;;;;;;;;;6257472;22;20420;-76
2022/12/10 08:57:05;;;;;;;14.20;10.27;;;;;;;;;;6258835;22;20428;-75
2022/12/10 08:59:54;;;;;;;13.00;10.37;;;;;;;;;;6267128;22;20406;-75
2022/12/10 09:02:44;;;;;;;13.60;10.43;;;;;;;;;;6253781;22;20433;-75
2022/12/10 09:05:33;;;;;;;13.90;10.03;;;;;;;;;;6258824;22;20501;-75
2022/12/10 09:08:21;;;;;;;14.50;10.77;;;;;;;;;;6255876;22;20412;-75
2022/12/10 09:11:11;;;;;;;13.87;10.23;;;;;;;;;;6258563;22;20522;-75
2022/12/10 09:13:59;;;;;;;15.30;10.67;;;;;;;;;;6264195;22;20419;-77
2022/12/10 09:16:50;;;;;;;15.73;11.10;;;;;;;;;;6254332;22;20414;-75
2022/12/10 09:19:43;;;;;;;12.80;10.17;;;;;;;;;;6254195;22;20768;-74
2022/12/10 09:22:31;;;;;;;14.93;10.30;;;;;;;;;;6254495;22;20977;-74
2022/12/10 09:25:21;;;;;;;14.87;9.73;;;;;;;;;;6254713;22;20417;-74
2022/12/10 09:28:09;;;;;;;15.93;11.10;;;;;;;;;;6260332;22;20417;-75
2022/12/10 09:30:58;;;;;;;16.17;10.87;;;;;;;;;;6263479;22;20437;-76
2022/12/10 09:33:47;;;;;;;12.47;9.43;;;;;;;;;;6254077;22;20444;-75
2022/12/10 09:36:37;;;;;;;15.43;11.40;;;;;;;;;;6255072;22;20420;-76
2022/12/10 09:39:29;;;;;;;13.30;10.43;;;;;;;;;;6253337;22;20418;-75
2022/12/10 09:42:26;;;;;;;15.83;10.63;;;;;;;;;;6254302;22;21018;-76
2022/12/10 09:45:19;;;;;;;11.83;9.70;;;;;;;;;;6257646;22;20416;-75
2022/12/10 09:48:16;;;;;;;11.70;9.20;;;;;;;;;;6257782;22;20431;-75
2022/12/10 09:51:08;;;;;;;13.97;10.00;;;;;;;;;;6270655;22;20496;-76
2022/12/10 09:53:59;;;;;;;13.77;10.17;;;;;;;;;;6254785;22;20415;-76
2022/12/10 09:56:47;;;;;;;14.00;9.87;;;;;;;;;;6265708;22;20443;-75
2022/12/10 09:59:38;;;;;;;12.27;10.47;;;;;;;;;;6264071;22;20414;-75
2022/12/10 10:02:28;;;;;;;14.47;10.23;;;;;;;;;;6260372;22;20474;-76
2022/12/10 10:05:19;;;;;;;10.47;8.87;;;;;;;;;;6252373;22;20441;-75
2022/12/10 10:08:13;;;;;;;11.63;9.17;;;;;;;;;;6255095;22;20424;-76
2022/12/10 10:11:04;;;;;;;11.00;8.70;;;;;;;;;;6276792;22;20441;-76
2022/12/10 10:13:54;;;;;;;10.90;9.00;;;;;;;;;;6257112;22;21132;-76
2022/12/10 10:16:46;;;;;;;13.60;9.47;;;;;;;;;;6268805;22;20481;-75
2022/12/10 10:19:37;;;;;;;9.90;8.57;;;;;;;;;;6259757;22;20416;-76
2022/12/10 10:22:26;;;;;;;10.90;8.83;;;;;;;;;;6257694;22;20520;-75
2022/12/10 10:25:15;;;;;;;11.70;9.60;;;;;;;;;;6258405;22;20414;-75
2022/12/10 10:28:05;;;;;;;9.20;8.20;;;;;;;;;;6265857;22;20774;-75
2022/12/10 10:30:54;;;;;;;11.67;9.17;;;;;;;;;;6259115;22;20420;-76
2022/12/10 10:33:50;;;;;;;12.20;9.33;;;;;;;;;;6262600;22;20411;-75
2022/12/10 10:36:39;;;;;;;12.37;9.50;;;;;;;;;;6252326;22;20651;-74
2022/12/10 10:39:29;;;;;;;11.73;9.20;;;;;;;;;;6271104;22;20413;-77
2022/12/10 10:42:24;;;;;;;11.20;9.10;;;;;;;;;;6253565;22;20445;-75
2022/12/10 10:45:28;;;;;;;10.03;8.90;;;;;;;;;;6260011;22;20414;-76
2022/12/10 10:48:19;;;;;;;12.23;9.27;;;;;;;;;;6252951;22;21325;-75
2022/12/10 10:51:08;;;;;;;10.23;8.80;;;;;;;;;;6264703;22;20440;-75
2022/12/10 10:53:57;;;;;;;14.63;11.60;;;;;;;;;;6256563;22;20539;-75
2022/12/10 10:56:45;;;;;;;14.07;10.00;;;;;;;;;;6259293;22;20422;-74
2022/12/10 10:59:36;;;;;;;8.80;7.90;;;;;;;;;;6256771;22;20413;-76
2022/12/10 11:02:26;;;;;;;13.77;10.20;;;;;;;;;;6269865;22;20445;-75
2022/12/10 11:05:19;;;;;;;9.97;8.50;;;;;;;;;;6255643;22;20410;-76
2022/12/10 11:08:15;;;;;;;15.03;9.10;;;;;;;;;;6263927;22;20919;-75
2022/12/10 11:11:05;;;;;;;17.03;11.97;;;;;;;;;;6269239;22;20435;-76
2022/12/10 11:13:54;;;;;;;10.60;8.63;;;;;;;;;;6251250;22;20417;-76
2022/12/10 11:16:42;;;;;;;9.70;7.93;;;;;;;;;;6250148;22;20413;-76
2022/12/10 11:19:31;;;;;;;9.40;8.50;;;;;;;;;;6264798;22;20421;-75
2022/12/10 11:22:23;;;;;;;11.23;9.43;;;;;;;;;;6266172;22;20448;-75
2022/12/10 11:25:13;;;;;;;13.17;10.90;;;;;;;;;;6253916;22;20417;-75
2022/12/10 11:28:03;;;;;;;12.30;9.80;;;;;;;;;;6256880;22;20424;-76
2022/12/10 11:30:57;;;;;;;10.43;9.20;;;;;;;;;;6262934;22;20754;-74
2022/12/10 11:33:51;;;;;;;11.40;9.80;;;;;;;;;;6252782;22;20433;-75
2022/12/10 11:36:42;;;;;;;11.37;8.97;;;;;;;;;;6245585;22;20489;-76
2022/12/10 11:39:41;;;;;;;12.87;8.23;;;;;;;;;;6250558;22;20976;-75
2022/12/10 11:42:35;;;;;;;11.30;8.57;;;;;;;;;;6251383;22;20456;-75
2022/12/10 11:45:26;;;;;;;11.93;9.87;;;;;;;;;;6255216;22;20410;-77
2022/12/10 11:48:32;;;;;;;11.67;8.60;;;;;;;;;;6264941;22;20439;-76
2022/12/10 11:51:30;;;;;;;10.20;8.77;;;;;;;;;;6254326;22;20941;-75
2022/12/10 11:54:30;;;;;;;10.13;9.10;;;;;;;;;;6255721;22;20802;-76
2022/12/10 11:57:22;;;;;;;10.90;9.30;;;;;;;;;;6266017;22;20906;-75
2022/12/10 12:00:17;;;;;;;12.33;9.90;;;;;;;;;;6258285;22;20421;-75
2022/12/10 12:03:14;;;;;;;9.80;8.50;;;;;;;;;;6257186;22;20443;-75
2022/12/10 12:06:11;;;;;;;9.70;8.20;;;;;;;;;;6265359;22;20411;-75
2022/12/10 12:09:04;;;;;;;10.77;8.43;;;;;;;;;;6255569;22;20420;-75
2022/12/10 12:12:01;;;;;;;10.30;9.10;;;;;;;;;;6256145;22;20508;-76
2022/12/10 12:14:52;;;;;;;10.80;9.07;;;;;;;;;;6255284;22;21015;-75
2022/12/10 12:17:43;;;;;;;11.20;9.80;;;;;;;;;;6264575;22;20413;-75
2022/12/10 12:20:33;;;;;;;11.37;9.57;;;;;;;;;;6254750;22;20417;-75
2022/12/10 12:23:25;;;;;;;12.20;10.10;;;;;;;;;;6255604;22;20437;-75
2022/12/10 12:26:16;;;;;;;10.80;9.53;;;;;;;;;;6253764;22;20414;-75
2022/12/10 12:29:13;;;;;;;10.10;8.33;;;;;;;;;;6257865;22;20454;-76
2022/12/10 12:32:04;;;;;;;11.20;9.40;;;;;;;;;;6259658;22;20971;-75
2022/12/10 12:34:54;;;;;;;10.73;9.63;;;;;;;;;;6267927;22;20408;-77
2022/12/10 12:37:50;;;;;;;11.20;9.00;;;;;;;;;;6253883;22;20416;-79
2022/12/10 12:40:44;;;;;;;11.93;10.10;;;;;;;;;;6259388;22;20447;-77
2022/12/10 12:43:37;;;;;;;12.23;10.13;;;;;;;;;;6257990;22;20445;-74
2022/12/10 12:46:31;;;;;;;12.43;10.20;;;;;;;;;;6260037;22;21264;-75
2022/12/10 12:49:24;;;;;;;12.40;9.80;;;;;;;;;;6252088;22;20415;-74
2022/12/10 12:52:19;;;;;;;12.70;10.63;;;;;;;;;;6253742;22;20440;-74
2022/12/10 12:55:14;;;;;;;12.63;11.27;;;;;;;;;;6255522;22;20424;-75
2022/12/10 12:58:12;;;;;;;11.80;10.13;;;;;;;;;;6255503;22;20442;-76
2022/12/10 13:01:05;;;;;;;12.73;10.07;;;;;;;;;;6256809;22;20440;-78
2022/12/10 13:03:55;;;;;;;12.80;11.20;;;;;;;;;;6256193;22;20448;-75
2022/12/10 13:07:05;;;;;;;12.70;9.83;;;;;;;;;;6253517;22;20419;-75
2022/12/10 13:10:08;;;;;;;13.17;9.90;;;;;;;;;;6256281;22;20415;-75
2022/12/10 13:13:08;;;;;;;11.40;10.17;;;;;;;;;;6264631;22;21095;-76
2022/12/10 13:15:57;;;;;;;11.90;9.97;;;;;;;;;;6256779;22;20420;-72
2022/12/10 13:18:45;;;;;;;11.80;10.20;;;;;;;;;;6252902;22;20495;-71
2022/12/10 13:21:34;;;;;;;14.33;10.80;;;;;;;;;;6256936;22;20911;-76
2022/12/10 13:24:42;;;;;;;11.57;10.20;;;;;;;;;;6255319;22;20433;-75
2022/12/10 13:27:34;;;;;;;12.40;9.90;;;;;;;;;;6252173;22;20413;-70
2022/12/10 13:30:35;;;;;;;11.43;10.20;;;;;;;;;;6248679;22;21067;-72
2022/12/10 13:33:23;;;;;;;11.57;9.57;;;;;;;;;;6264331;22;20925;-71
2022/12/10 13:36:12;;;;;;;12.57;9.40;;;;;;;;;;6266697;22;20907;-71
2022/12/10 13:39:13;;;;;;;11.73;10.27;;;;;;;;;;6261110;22;20406;-71
2022/12/10 13:45:33;;;;;;;11.27;9.87;;;;;;;;;;6267063;22;20909;-71
2022/12/10 13:48:36;;;;;;;12.13;10.20;;;;;;;;;;6253884;22;20424;-71
2022/12/10 13:51:39;;;;;;;11.37;9.70;;;;;;;;;;6251673;22;20450;-70
2022/12/10 13:54:37;;;;;;;10.87;9.73;;;;;;;;;;6267367;22;20417;-73
2022/12/10 13:57:36;;;;;;;11.77;9.73;;;;;;;;;;6270795;22;20894;-71
2022/12/10 14:00:29;;;;;;;11.53;10.10;;;;;;;;;;6269557;22;20404;-73
2022/12/10 14:03:33;;;;;;;13.23;9.97;;;;;;;;;;6252613;22;21255;-72
2022/12/10 14:06:24;;;;;;;11.47;10.00;;;;;;;;;;6250557;22;21185;-70
2022/12/10 14:09:15;;;;;;;12.17;10.00;;;;;;;;;;6252874;22;20758;-70
2022/12/10 14:12:06;;;;;;;12.57;10.30;;;;;;;;;;6250657;22;20487;-71
2022/12/10 14:14:57;;;;;;;12.53;10.90;;;;;;;;;;6252037;22;20420;-71
2022/12/10 14:17:46;;;;;;;12.47;10.03;;;;;;;;;;6264071;22;21205;-73
2022/12/10 14:20:35;;;;;;;11.93;9.30;;;;;;;;;;6252181;22;20415;-72
2022/12/10 14:23:41;;;;;;;12.80;10.37;;;;;;;;;;6260946;22;20444;-71
2022/12/10 14:26:36;;;;;;;11.83;9.80;;;;;;;;;;6257927;22;20455;-70
2022/12/10 14:29:25;;;;;;;13.03;10.67;;;;;;;;;;6270361;22;20420;-74
2022/12/10 14:32:20;;;;;;;15.03;11.40;;;;;;;;;;6260234;22;20835;-71
2022/12/10 14:35:13;;;;;;;13.80;10.93;;;;;;;;;;6260612;22;20422;-71
2022/12/10 14:38:07;;;;;;;13.80;10.37;;;;;;;;;;6255033;22;21025;-70
2022/12/10 14:40:57;;;;;;;13.50;10.60;;;;;;;;;;6259835;22;20907;-71
2022/12/10 14:43:46;;;;;;;14.37;10.53;;;;;;;;;;6254094;22;20439;-69
2022/12/10 14:46:34;;;;;;;13.60;9.90;;;;;;;;;;6255422;22;20412;-70
2022/12/10 14:49:25;;;;;;;13.50;10.37;;;;;;;;;;6251233;22;20420;-72
2022/12/10 14:52:14;;;;;;;11.40;10.17;;;;;;;;;;6252212;22;20443;-70
2022/12/10 14:55:03;;;;;;;13.00;10.60;;;;;;;;;;6252010;22;20802;-71
2022/12/10 14:57:55;;;;;;;14.70;11.00;;;;;;;;;;6251855;22;20409;-70
2022/12/10 15:00:44;;;;;;;15.93;12.10;;;;;;;;;;6253320;22;20420;-71
2022/12/10 15:03:34;;;;;;;12.53;10.70;;;;;;;;;;6263883;22;20445;-74
2022/12/10 15:06:23;;;;;;;13.00;10.73;;;;;;;;;;6251477;22;20559;-70
2022/12/10 15:09:16;;;;;;;13.43;10.67;;;;;;;;;;6262562;22;20418;-70
2022/12/10 15:12:04;;;;;;;13.37;10.60;;;;;;;;;;6251240;22;20973;-70
2022/12/10 15:14:56;;;;;;;13.30;10.33;;;;;;;;;;6253317;22;20420;-71
2022/12/10 15:17:54;;;;;;;13.87;10.70;;;;;;;;;;6263713;22;20412;-71
2022/12/10 15:20:48;;;;;;;14.47;11.30;;;;;;;;;;6259921;22;20418;-71
2022/12/10 15:23:37;;;;;;;14.27;11.10;;;;;;;;;;6256495;22;20448;-71
2022/12/10 15:26:26;;;;;;;16.70;12.07;;;;;;;;;;6247623;22;20498;-71
2022/12/10 15:29:35;;;;;;;14.70;11.80;;;;;;;;;;6254448;22;20417;-71
2022/12/10 15:32:26;;;;;;;15.57;12.00;;;;;;;;;;6255041;22;20429;-71
2022/12/10 15:35:15;;;;;;;13.87;11.30;;;;;;;;;;6259513;22;20949;-72
2022/12/10 15:38:06;;;;;;;12.83;11.53;;;;;;;;;;6257549;22;21219;-75
2022/12/10 15:40:58;;;;;;;12.90;10.43;;;;;;;;;;6256682;22;20422;-74
2022/12/10 15:43:52;;;;;;;14.07;10.70;;;;;;;;;;6270248;22;20432;-73
2022/12/10 15:46:48;;;;;;;16.63;11.70;;;;;;;;;;6263407;22;20427;-75
2022/12/10 15:49:38;;;;;;;17.43;12.20;;;;;;;;;;6269512;22;20419;-75
2022/12/10 15:52:27;;;;;;;17.43;11.77;;;;;;;;;;6271614;22;20448;-74
2022/12/10 15:55:17;;;;;;;13.40;11.20;;;;;;;;;;6261593;22;20411;-73
2022/12/10 15:58:11;;;;;;;13.50;10.87;;;;;;;;;;6282310;22;20409;-74
2022/12/10 16:01:01;;;;;;;15.87;12.10;;;;;;;;;;6257344;22;20439;-76
2022/12/10 16:03:50;;;;;;;19.10;12.47;;;;;;;;;;6250654;22;21176;-76
2022/12/10 16:06:40;;;;;;;17.50;11.73;;;;;;;;;;6258343;22;20413;-76
2022/12/10 16:09:28;;;;;;;15.83;11.10;;;;;;;;;;6265765;22;20760;-74
2022/12/10 16:12:18;;;;;;;15.00;11.17;;;;;;;;;;6254935;22;21274;-72
2022/12/10 16:15:08;;;;;;;14.90;11.10;;;;;;;;;;6255444;22;20759;-75
2022/12/10 16:17:57;;;;;;;17.40;11.23;;;;;;;;;;6260923;22;20411;-76
2022/12/10 16:20:46;;;;;;;14.87;11.10;;;;;;;;;;6257706;22;20938;-76
2022/12/10 16:23:36;;;;;;;16.03;11.00;;;;;;;;;;6276782;22;20412;-75
2022/12/10 16:26:25;;;;;;;14.57;10.77;;;;;;;;;;6263041;22;20843;-76
2022/12/10 16:29:14;;;;;;;16.43;12.10;;;;;;;;;;6255743;22;20447;-75
2022/12/10 16:32:03;;;;;;;15.80;11.03;;;;;;;;;;6258714;22;20436;-75
2022/12/10 16:34:52;;;;;;;14.90;10.80;;;;;;;;;;6252691;22;20516;-75
2022/12/10 16:37:40;;;;;;;15.80;10.97;;;;;;;;;;6258206;22;20910;-75
2022/12/10 16:40:30;;;;;;;14.70;11.07;;;;;;;;;;6255073;22;20427;-75
2022/12/10 16:43:20;;;;;;;15.63;11.00;;;;;;;;;;6251078;22;21512;-74
2022/12/10 16:46:10;;;;;;;16.70;11.50;;;;;;;;;;6260881;22;20403;-75
2022/12/10 16:48:59;;;;;;;15.70;10.90;;;;;;;;;;6254419;22;20417;-75
2022/12/10 16:51:48;;;;;;;15.47;10.90;;;;;;;;;;6257982;22;20445;-74
2022/12/10 16:54:36;;;;;;;15.97;11.47;;;;;;;;;;6256315;22;20413;-76
2022/12/10 16:57:26;;;;;;;17.03;11.80;;;;;;;;;;6256862;22;20412;-73
2022/12/10 17:00:23;;;;;;;18.00;13.00;;;;;;;;;;6257349;22;20493;-73
2022/12/10 17:03:15;;;;;;;19.60;14.27;;;;;;;;;;6257850;22;20414;-73